sensor_id;sensor_type;location;lat;lon;timestamp;pressure;altitude;pressure_sealevel;temperature;humidity
71772;BME280;59606;52.138;5.424;2023-02-26T00:00:06;102089.22;;;0.87;84.56
71772;BME280;59606;52.138;5.424;2023-02-26T00:02:39;102096.06;;;0.88;84.27
71772;BME280;59606;52.138;5.424;2023-02-26T00:05:05;102096.91;;;0.87;83.58
71772;BME280;59606;52.138;5.424;2023-02-26T00:07:33;102100.28;;;0.83;83.43
71772;BME280;59606;52.138;5.424;2023-02-26T00:10:00;102100.28;;;0.83;82.54
71772;BME280;59606;52.138;5.424;2023-02-26T00:12:29;102104.56;;;0.83;82.12
71772;BME280;59606;52.138;5.424;2023-02-26T00:14:56;102112.25;;;0.80;82.15
71772;BME280;59606;52.138;5.424;2023-02-26T00:19:49;102118.19;;;0.73;81.92
71772;BME280;59606;52.138;5.424;2023-02-26T00:22:16;102130.16;;;0.70;81.09
71772;BME280;59606;52.138;5.424;2023-02-26T00:24:42;102136.13;;;0.71;81.10
71772;BME280;59606;52.138;5.424;2023-02-26T00:27:12;102144.69;;;0.72;80.84
71772;BME280;59606;52.138;5.424;2023-02-26T00:29:39;102140.41;;;0.74;80.70
71772;BME280;59606;52.138;5.424;2023-02-26T00:32:06;102148.09;;;0.74;80.69
71772;BME280;59606;52.138;5.424;2023-02-26T00:34:33;102160.94;;;0.77;80.35
71772;BME280;59606;52.138;5.424;2023-02-26T00:39:54;102159.31;;;0.85;80.04
71772;BME280;59606;52.138;5.424;2023-02-26T00:42:23;102172.16;;;0.88;79.57
71772;BME280;59606;52.138;5.424;2023-02-26T00:44:49;102172.16;;;0.89;79.37
71772;BME280;59606;52.138;5.424;2023-02-26T00:55:06;102173.81;;;0.81;78.84
71772;BME280;59606;52.138;5.424;2023-02-26T00:57:33;102171.22;;;0.80;79.15
71772;BME280;59606;52.138;5.424;2023-02-26T00:59:59;102178.06;;;0.78;79.01
71772;BME280;59606;52.138;5.424;2023-02-26T01:02:26;102172.09;;;0.77;78.95
71772;BME280;59606;52.138;5.424;2023-02-26T01:04:52;102175.50;;;0.76;78.92
71772;BME280;59606;52.138;5.424;2023-02-26T01:07:21;102171.19;;;0.72;79.20
71772;BME280;59606;52.138;5.424;2023-02-26T01:09:50;102173.72;;;0.69;78.83
71772;BME280;59606;52.138;5.424;2023-02-26T01:12:16;102175.44;;;0.70;79.50
71772;BME280;59606;52.138;5.424;2023-02-26T01:14:43;102179.72;;;0.69;79.46
71772;BME280;59606;52.138;5.424;2023-02-26T01:17:22;102178.84;;;0.69;79.52
71772;BME280;59606;52.138;5.424;2023-02-26T01:20:02;102183.13;;;0.70;79.24
71772;BME280;59606;52.138;5.424;2023-02-26T01:22:36;102188.25;;;0.68;79.08
71772;BME280;59606;52.138;5.424;2023-02-26T01:25:08;102189.97;;;0.68;79.60
71772;BME280;59606;52.138;5.424;2023-02-26T01:27:35;102190.78;;;0.67;79.14
71772;BME280;59606;52.138;5.424;2023-02-26T01:30:04;102191.63;;;0.63;79.28
71772;BME280;59606;52.138;5.424;2023-02-26T01:32:48;102196.72;;;0.60;79.04
71772;BME280;59606;52.138;5.424;2023-02-26T01:35:46;102195.84;;;0.55;79.22
71772;BME280;59606;52.138;5.424;2023-02-26T01:49:31;102206.81;;;0.40;78.62
71772;BME280;59606;52.138;5.424;2023-02-26T01:52:00;102213.63;;;0.36;78.28
71772;BME280;59606;52.138;5.424;2023-02-26T01:54:30;102216.16;;;0.36;78.34
71772;BME280;59606;52.138;5.424;2023-02-26T01:59:34;102216.09;;;0.29;78.70
71772;BME280;59606;52.138;5.424;2023-02-26T02:02:03;102222.91;;;0.27;78.51
71772;BME280;59606;52.138;5.424;2023-02-26T02:04:30;102216.06;;;0.26;78.99
71772;BME280;59606;52.138;5.424;2023-02-26T02:06:58;102222.03;;;0.23;78.93
71772;BME280;59606;52.138;5.424;2023-02-26T02:09:25;102223.66;;;0.16;78.78
71772;BME280;59606;52.138;5.424;2023-02-26T02:11:56;102227.94;;;0.14;79.10
71772;BME280;59606;52.138;5.424;2023-02-26T02:25:52;102246.56;;;0.03;78.48
71772;BME280;59606;52.138;5.424;2023-02-26T02:28:43;102253.41;;;0.01;78.72
71772;BME280;59606;52.138;5.424;2023-02-26T02:31:21;102244.81;;;-0.03;78.84
71772;BME280;59606;52.138;5.424;2023-02-26T02:39:06;102258.38;;;-0.10;78.69
71772;BME280;59606;52.138;5.424;2023-02-26T02:41:39;102257.53;;;-0.11;79.00
71772;BME280;59606;52.138;5.424;2023-02-26T02:44:12;102266.06;;;-0.12;78.45
71772;BME280;59606;52.138;5.424;2023-02-26T02:46:42;102279.66;;;-0.14;78.33
71772;BME280;59606;52.138;5.424;2023-02-26T02:49:19;102275.38;;;-0.17;78.54
71772;BME280;59606;52.138;5.424;2023-02-26T02:51:51;102266.81;;;-0.17;78.38
71772;BME280;59606;52.138;5.424;2023-02-26T02:54:27;102276.22;;;-0.19;78.53
71772;BME280;59606;52.138;5.424;2023-02-26T02:57:00;102278.72;;;-0.21;78.70
71772;BME280;59606;52.138;5.424;2023-02-26T02:59:43;102272.72;;;-0.25;78.19
71772;BME280;59606;52.138;5.424;2023-02-26T03:02:18;102285.50;;;-0.26;78.00
71772;BME280;59606;52.138;5.424;2023-02-26T03:04:48;102282.06;;;-0.30;78.42
71772;BME280;59606;52.138;5.424;2023-02-26T03:07:14;102288.03;;;-0.29;78.20
71772;BME280;59606;52.138;5.424;2023-02-26T03:09:41;102284.56;;;-0.31;78.25
71772;BME280;59606;52.138;5.424;2023-02-26T03:12:08;102293.09;;;-0.32;78.31
71772;BME280;59606;52.138;5.424;2023-02-26T03:14:35;102295.63;;;-0.37;78.91
71772;BME280;59606;52.138;5.424;2023-02-26T03:17:20;102293.00;;;-0.40;78.52
71772;BME280;59606;52.138;5.424;2023-02-26T03:25:45;102306.53;;;-0.47;78.61
71772;BME280;59606;52.138;5.424;2023-02-26T03:31:14;102310.81;;;-0.48;78.39
71772;BME280;59606;52.138;5.424;2023-02-26T03:33:46;102308.19;;;-0.51;77.87
71772;BME280;59606;52.138;5.424;2023-02-26T03:36:29;102309.91;;;-0.51;77.68
71772;BME280;59606;52.138;5.424;2023-02-26T03:39:08;102313.25;;;-0.55;77.86
71772;BME280;59606;52.138;5.424;2023-02-26T03:41:50;102315.84;;;-0.54;77.65
71772;BME280;59606;52.138;5.424;2023-02-26T03:44:29;102324.41;;;-0.52;77.30
71772;BME280;59606;52.138;5.424;2023-02-26T03:47:09;102323.53;;;-0.52;77.30
71772;BME280;59606;52.138;5.424;2023-02-26T03:49:49;102331.19;;;-0.55;77.09
71772;BME280;59606;52.138;5.424;2023-02-26T03:52:20;102327.72;;;-0.59;77.05
71772;BME280;59606;52.138;5.424;2023-02-26T03:54:58;102336.28;;;-0.57;77.38
71772;BME280;59606;52.138;5.424;2023-02-26T03:57:26;102338.84;;;-0.57;76.75
71772;BME280;59606;52.138;5.424;2023-02-26T03:59:53;102337.09;;;-0.58;76.50
71772;BME280;59606;52.138;5.424;2023-02-26T04:02:26;102343.88;;;-0.61;76.62
71772;BME280;59606;52.138;5.424;2023-02-26T04:04:59;102346.38;;;-0.64;76.66
71772;BME280;59606;52.138;5.424;2023-02-26T04:07:28;102354.91;;;-0.67;76.69
71772;BME280;59606;52.138;5.424;2023-02-26T04:09:55;102346.28;;;-0.71;76.75
71772;BME280;59606;52.138;5.424;2023-02-26T04:12:23;102353.94;;;-0.74;77.51
71772;BME280;59606;52.138;5.424;2023-02-26T04:14:50;102353.00;;;-0.77;77.15
71772;BME280;59606;52.138;5.424;2023-02-26T04:17:16;102360.66;;;-0.80;77.83
71772;BME280;59606;52.138;5.424;2023-02-26T04:19:44;102361.41;;;-0.84;78.17
71772;BME280;59606;52.138;5.424;2023-02-26T04:22:10;102368.16;;;-0.88;78.13
71772;BME280;59606;52.138;5.424;2023-02-26T04:24:37;102369.88;;;-0.88;78.34
71772;BME280;59606;52.138;5.424;2023-02-26T04:27:04;102376.63;;;-0.92;78.01
71772;BME280;59606;52.138;5.424;2023-02-26T04:29:31;102363.00;;;-0.92;78.38
71772;BME280;59606;52.138;5.424;2023-02-26T04:31:57;102378.28;;;-0.96;78.15
71772;BME280;59606;52.138;5.424;2023-02-26T04:34:24;102379.94;;;-0.98;78.55
71772;BME280;59606;52.138;5.424;2023-02-26T04:36:51;102390.16;;;-0.99;78.63
71772;BME280;59606;52.138;5.424;2023-02-26T04:39:18;102385.88;;;-1.00;78.80
71772;BME280;59606;52.138;5.424;2023-02-26T04:41:44;102390.13;;;-1.01;78.51
71772;BME280;59606;52.138;5.424;2023-02-26T04:44:11;102402.88;;;-1.02;78.43
71772;BME280;59606;52.138;5.424;2023-02-26T04:46:37;102399.41;;;-1.06;78.79
71772;BME280;59606;52.138;5.424;2023-02-26T04:49:04;102401.06;;;-1.09;79.14
71772;BME280;59606;52.138;5.424;2023-02-26T04:51:31;102401.06;;;-1.09;78.93
71772;BME280;59606;52.138;5.424;2023-02-26T04:53:57;102409.53;;;-1.12;78.91
71772;BME280;59606;52.138;5.424;2023-02-26T04:56:24;102402.66;;;-1.14;79.08
71772;BME280;59606;52.138;5.424;2023-02-26T04:58:51;102412.81;;;-1.17;79.26
71772;BME280;59606;52.138;5.424;2023-02-26T05:01:18;102418.81;;;-1.17;79.13
71772;BME280;59606;52.138;5.424;2023-02-26T05:03:44;102413.66;;;-1.20;79.30
71772;BME280;59606;52.138;5.424;2023-02-26T05:06:11;102422.06;;;-1.24;79.04
71772;BME280;59606;52.138;5.424;2023-02-26T05:08:37;102428.88;;;-1.25;79.32
71772;BME280;59606;52.138;5.424;2023-02-26T05:11:09;102438.19;;;-1.28;79.42
71772;BME280;59606;52.138;5.424;2023-02-26T05:13:36;102436.47;;;-1.31;79.90
71772;BME280;59606;52.138;5.424;2023-02-26T05:16:03;102441.50;;;-1.34;79.65
71772;BME280;59606;52.138;5.424;2023-02-26T05:18:29;102444.84;;;-1.36;79.59
71772;BME280;59606;52.138;5.424;2023-02-26T05:20:56;102454.16;;;-1.38;79.86
71772;BME280;59606;52.138;5.424;2023-02-26T05:23:22;102454.09;;;-1.42;80.21
71772;BME280;59606;52.138;5.424;2023-02-26T05:25:49;102454.09;;;-1.43;80.16
71772;BME280;59606;52.138;5.424;2023-02-26T05:28:16;102454.03;;;-1.45;80.09
71772;BME280;59606;52.138;5.424;2023-02-26T05:30:42;102458.28;;;-1.45;80.22
71772;BME280;59606;52.138;5.424;2023-02-26T05:33:09;102459.13;;;-1.46;80.16
71772;BME280;59606;52.138;5.424;2023-02-26T05:35:35;102463.34;;;-1.48;80.29
71772;BME280;59606;52.138;5.424;2023-02-26T05:38:02;102465.88;;;-1.50;80.50
71772;BME280;59606;52.138;5.424;2023-02-26T05:40:28;102466.66;;;-1.54;80.47
71772;BME280;59606;52.138;5.424;2023-02-26T05:42:55;102475.13;;;-1.55;80.33
71772;BME280;59606;52.138;5.424;2023-02-26T05:45:21;102478.50;;;-1.57;80.53
71772;BME280;59606;52.138;5.424;2023-02-26T05:47:48;102475.81;;;-1.62;80.73
71772;BME280;59606;52.138;5.424;2023-02-26T05:50:14;102486.03;;;-1.62;80.08
71772;BME280;59606;52.138;5.424;2023-02-26T05:52:41;102483.41;;;-1.65;80.59
71772;BME280;59606;52.138;5.424;2023-02-26T05:55:08;102492.78;;;-1.66;80.84
71772;BME280;59606;52.138;5.424;2023-02-26T05:57:35;102497.03;;;-1.66;80.69
71772;BME280;59606;52.138;5.424;2023-02-26T06:00:02;102501.22;;;-1.68;81.31
71772;BME280;59606;52.138;5.424;2023-02-26T06:02:29;102507.94;;;-1.73;80.83
71772;BME280;59606;52.138;5.424;2023-02-26T06:04:55;102509.66;;;-1.74;80.96
71772;BME280;59606;52.138;5.424;2023-02-26T06:07:22;102511.34;;;-1.74;81.24
71772;BME280;59606;52.138;5.424;2023-02-26T06:09:49;102511.28;;;-1.77;81.34
71772;BME280;59606;52.138;5.424;2023-02-26T06:12:16;102518.94;;;-1.77;81.07
71772;BME280;59606;52.138;5.424;2023-02-26T06:14:42;102520.56;;;-1.81;81.04
71772;BME280;59606;52.138;5.424;2023-02-26T06:17:09;102517.94;;;-1.82;80.87
71772;BME280;59606;52.138;5.424;2023-02-26T06:19:35;102520.44;;;-1.85;81.05
71772;BME280;59606;52.138;5.424;2023-02-26T06:22:02;102530.66;;;-1.85;81.32
71772;BME280;59606;52.138;5.424;2023-02-26T06:24:28;102530.66;;;-1.85;81.30
71772;BME280;59606;52.138;5.424;2023-02-26T06:26:55;102525.50;;;-1.87;81.23
71772;BME280;59606;52.138;5.424;2023-02-26T06:29:21;102528.06;;;-1.87;81.06
71772;BME280;59606;52.138;5.424;2023-02-26T06:31:48;102535.75;;;-1.85;81.12
71772;BME280;59606;52.138;5.424;2023-02-26T06:34:15;102538.28;;;-1.87;81.17
71772;BME280;59606;52.138;5.424;2023-02-26T06:36:42;102540.06;;;-1.84;81.05
71772;BME280;59606;52.138;5.424;2023-02-26T06:39:09;102547.75;;;-1.83;80.90
71772;BME280;59606;52.138;5.424;2023-02-26T06:41:37;102545.22;;;-1.81;81.06
71772;BME280;59606;52.138;5.424;2023-02-26T06:44:04;102558.78;;;-1.84;80.80
71772;BME280;59606;52.138;5.424;2023-02-26T06:46:30;102558.78;;;-1.84;80.88
71772;BME280;59606;52.138;5.424;2023-02-26T06:48:57;102569.03;;;-1.82;80.87
71772;BME280;59606;52.138;5.424;2023-02-26T06:51:23;102567.41;;;-1.80;80.75
71772;BME280;59606;52.138;5.424;2023-02-26T06:53:50;102568.25;;;-1.80;81.21
71772;BME280;59606;52.138;5.424;2023-02-26T06:56:16;102570.03;;;-1.77;80.83
71772;BME280;59606;52.138;5.424;2023-02-26T06:58:43;102580.19;;;-1.79;81.26
71772;BME280;59606;52.138;5.424;2023-02-26T07:01:09;102585.38;;;-1.76;80.99
71772;BME280;59606;52.138;5.424;2023-02-26T07:03:36;102592.19;;;-1.75;81.16
71772;BME280;59606;52.138;5.424;2023-02-26T07:06:03;102592.28;;;-1.72;81.31
71772;BME280;59606;52.138;5.424;2023-02-26T07:08:49;102594.06;;;-1.69;81.09
71772;BME280;59606;52.138;5.424;2023-02-26T07:11:16;102600.09;;;-1.66;81.23
71772;BME280;59606;52.138;5.424;2023-02-26T07:13:42;102606.13;;;-1.62;81.13
71772;BME280;59606;52.138;5.424;2023-02-26T07:16:09;102606.22;;;-1.59;81.23
71772;BME280;59606;52.138;5.424;2023-02-26T07:18:36;102613.19;;;-1.53;81.21
71772;BME280;59606;52.138;5.424;2023-02-26T07:21:03;102621.00;;;-1.46;81.34
71772;BME280;59606;52.138;5.424;2023-02-26T07:23:30;102613.44;;;-1.41;80.68
71772;BME280;59606;52.138;5.424;2023-02-26T07:25:56;102623.78;;;-1.36;81.11
71772;BME280;59606;52.138;5.424;2023-02-26T07:28:24;102626.44;;;-1.32;80.88
71772;BME280;59606;52.138;5.424;2023-02-26T07:30:53;102620.63;;;-1.26;81.03
71772;BME280;59606;52.138;5.424;2023-02-26T07:33:21;102632.72;;;-1.19;81.15
71772;BME280;59606;52.138;5.424;2023-02-26T07:35:47;102622.63;;;-1.11;81.36
71772;BME280;59606;52.138;5.424;2023-02-26T07:38:14;102627.91;;;-1.05;80.69
71772;BME280;59606;52.138;5.424;2023-02-26T07:40:40;102632.38;;;-0.97;80.69
71772;BME280;59606;52.138;5.424;2023-02-26T07:43:06;102641.84;;;-0.91;80.34
71772;BME280;59606;52.138;5.424;2023-02-26T07:45:33;102639.47;;;-0.83;80.70
71772;BME280;59606;52.138;5.424;2023-02-26T07:48:00;102641.38;;;-0.73;79.69
71772;BME280;59606;52.138;5.424;2023-02-26T07:50:26;102642.41;;;-0.65;79.46
71772;BME280;59606;52.138;5.424;2023-02-26T07:52:53;102645.94;;;-0.58;79.74
71772;BME280;59606;52.138;5.424;2023-02-26T07:55:19;102655.47;;;-0.51;79.55
71772;BME280;59606;52.138;5.424;2023-02-26T07:57:46;102648.78;;;-0.44;79.42
71772;BME280;59606;52.138;5.424;2023-02-26T08:00:14;102649.75;;;-0.39;79.61
71772;BME280;59606;52.138;5.424;2023-02-26T08:02:41;102660.13;;;-0.32;79.31
71772;BME280;59606;52.138;5.424;2023-02-26T08:05:07;102651.72;;;-0.26;79.28
71772;BME280;59606;52.138;5.424;2023-02-26T08:07:34;102653.50;;;-0.20;79.13
71772;BME280;59606;52.138;5.424;2023-02-26T08:10:00;102665.56;;;-0.15;78.74
71772;BME280;59606;52.138;5.424;2023-02-26T08:12:27;102669.09;;;-0.10;78.61
71772;BME280;59606;52.138;5.424;2023-02-26T08:14:54;102670.09;;;-0.02;78.82
71772;BME280;59606;52.138;5.424;2023-02-26T08:17:20;102670.22;;;0.06;78.55
71772;BME280;59606;52.138;5.424;2023-02-26T08:19:47;102683.19;;;0.14;78.34
71772;BME280;59606;52.138;5.424;2023-02-26T08:22:13;102693.53;;;0.20;77.66
71772;BME280;59606;52.138;5.424;2023-02-26T08:24:40;102695.41;;;0.27;78.02
71772;BME280;59606;52.138;5.424;2023-02-26T08:27:06;102696.38;;;0.34;77.17
71772;BME280;59606;52.138;5.424;2023-02-26T08:29:33;102697.34;;;0.40;77.03
71772;BME280;59606;52.138;5.424;2023-02-26T08:31:59;102694.84;;;0.46;76.97
71772;BME280;59606;52.138;5.424;2023-02-26T08:34:26;102702.69;;;0.54;77.01
71772;BME280;59606;52.138;5.424;2023-02-26T08:36:52;102707.91;;;0.60;76.60
71772;BME280;59606;52.138;5.424;2023-02-26T08:39:19;102709.75;;;0.67;76.60
71772;BME280;59606;52.138;5.424;2023-02-26T08:41:45;102708.16;;;0.76;76.37
71772;BME280;59606;52.138;5.424;2023-02-26T08:44:12;102710.78;;;0.80;75.69
71772;BME280;59606;52.138;5.424;2023-02-26T08:46:38;102718.59;;;0.86;75.40
71772;BME280;59606;52.138;5.424;2023-02-26T08:49:05;102717.81;;;0.92;75.04
71772;BME280;59606;52.138;5.424;2023-02-26T08:51:32;102721.34;;;0.99;74.39
71772;BME280;59606;52.138;5.424;2023-02-26T08:53:58;102727.44;;;1.07;74.05
71772;BME280;59606;52.138;5.424;2023-02-26T08:56:25;102713.84;;;1.12;73.06
71772;BME280;59606;52.138;5.424;2023-02-26T08:58:52;102727.63;;;1.17;72.19
71772;BME280;59606;52.138;5.424;2023-02-26T09:01:18;102722.56;;;1.22;71.19
71772;BME280;59606;52.138;5.424;2023-02-26T09:03:45;102734.63;;;1.28;71.32
71772;BME280;59606;52.138;5.424;2023-02-26T09:06:11;102734.72;;;1.35;70.54
71772;BME280;59606;52.138;5.424;2023-02-26T09:08:38;102736.53;;;1.42;70.43
71772;BME280;59606;52.138;5.424;2023-02-26T09:11:04;102734.91;;;1.51;70.05
71772;BME280;59606;52.138;5.424;2023-02-26T09:13:31;102740.19;;;1.58;69.48
71772;BME280;59606;52.138;5.424;2023-02-26T09:15:57;102745.41;;;1.66;69.44
71772;BME280;59606;52.138;5.424;2023-02-26T09:18:24;102746.34;;;1.71;69.00
71772;BME280;59606;52.138;5.424;2023-02-26T09:20:50;102755.00;;;1.79;68.47
71772;BME280;59606;52.138;5.424;2023-02-26T09:23:17;102754.25;;;1.88;67.50
71772;BME280;59606;52.138;5.424;2023-02-26T09:25:44;102751.69;;;1.91;67.48
71772;BME280;59606;52.138;5.424;2023-02-26T09:28:10;102751.78;;;1.97;67.50
71772;BME280;59606;52.138;5.424;2023-02-26T09:30:37;102751.84;;;2.03;66.55
71772;BME280;59606;52.138;5.424;2023-02-26T09:33:04;102752.75;;;2.07;65.63
71772;BME280;59606;52.138;5.424;2023-02-26T09:35:30;102750.25;;;2.13;65.39
71772;BME280;59606;52.138;5.424;2023-02-26T09:37:57;102754.59;;;2.19;65.62
71772;BME280;59606;52.138;5.424;2023-02-26T09:40:41;102757.25;;;2.25;65.28
71772;BME280;59606;52.138;5.424;2023-02-26T09:46:27;102760.81;;;2.41;64.54
71772;BME280;59606;52.138;5.424;2023-02-26T09:49:06;102760.88;;;2.45;64.27
71772;BME280;59606;52.138;5.424;2023-02-26T09:51:38;102756.66;;;2.52;64.19
71772;BME280;59606;52.138;5.424;2023-02-26T09:54:15;102760.16;;;2.58;64.08
71772;BME280;59606;52.138;5.424;2023-02-26T09:56:42;102762.78;;;2.66;64.63
71772;BME280;59606;52.138;5.424;2023-02-26T09:59:10;102765.44;;;2.75;64.65
71772;BME280;59606;52.138;5.424;2023-02-26T10:01:45;102767.22;;;2.82;64.10
71772;BME280;59606;52.138;5.424;2023-02-26T10:09:47;102772.47;;;2.96;61.67
71772;BME280;59606;52.138;5.424;2023-02-26T10:12:22;102774.19;;;2.97;61.25
71772;BME280;59606;52.138;5.424;2023-02-26T10:15:05;102782.78;;;3.01;61.00
71772;BME280;59606;52.138;5.424;2023-02-26T10:17:40;102773.41;;;3.07;61.46
71772;BME280;59606;52.138;5.424;2023-02-26T10:20:24;102783.75;;;3.12;60.47
71772;BME280;59606;52.138;5.424;2023-02-26T10:23:03;102782.13;;;3.23;61.23
71772;BME280;59606;52.138;5.424;2023-02-26T10:25:52;102781.31;;;3.35;61.65
71772;BME280;59606;52.138;5.424;2023-02-26T10:31:22;102785.69;;;3.45;60.50
71772;BME280;59606;52.138;5.424;2023-02-26T10:34:11;102787.47;;;3.56;60.23
71772;BME280;59606;52.138;5.424;2023-02-26T10:36:50;102796.09;;;3.64;59.71
71772;BME280;59606;52.138;5.424;2023-02-26T10:41:51;102801.31;;;3.70;58.38
71772;BME280;59606;52.138;5.424;2023-02-26T10:44:25;102790.13;;;3.75;58.64
71772;BME280;59606;52.138;5.424;2023-02-26T10:49:52;102801.41;;;3.90;58.16
71772;BME280;59606;52.138;5.424;2023-02-26T10:52:23;102803.16;;;3.97;58.38
71772;BME280;59606;52.138;5.424;2023-02-26T10:57:31;102797.16;;;3.99;57.69
71772;BME280;59606;52.138;5.424;2023-02-26T11:00:00;102811.78;;;4.07;58.18
71772;BME280;59606;52.138;5.424;2023-02-26T11:02:39;102807.47;;;4.04;57.97
71772;BME280;59606;52.138;5.424;2023-02-26T11:05:16;102805.78;;;4.12;57.09
71772;BME280;59606;52.138;5.424;2023-02-26T11:07:47;102799.75;;;4.15;56.82
71772;BME280;59606;52.138;5.424;2023-02-26T11:10:21;102809.25;;;4.20;57.01
71772;BME280;59606;52.138;5.424;2023-02-26T11:12:48;102810.09;;;4.18;57.39
71772;BME280;59606;52.138;5.424;2023-02-26T11:15:20;102810.13;;;4.25;56.59
71772;BME280;59606;52.138;5.424;2023-02-26T11:17:52;102805.84;;;4.34;55.42
71772;BME280;59606;52.138;5.424;2023-02-26T11:20:41;102817.88;;;4.35;55.70
71772;BME280;59606;52.138;5.424;2023-02-26T11:23:15;102823.06;;;4.30;55.37
71772;BME280;59606;52.138;5.424;2023-02-26T11:25:43;102815.31;;;4.35;54.45
71772;BME280;59606;52.138;5.424;2023-02-26T11:28:25;102821.38;;;4.43;54.97
71772;BME280;59606;52.138;5.424;2023-02-26T11:30:54;102815.34;;;4.48;54.24
71772;BME280;59606;52.138;5.424;2023-02-26T11:33:27;102815.38;;;4.50;53.15
71772;BME280;59606;52.138;5.424;2023-02-26T11:35:59;102817.03;;;4.39;52.95
71772;BME280;59606;52.138;5.424;2023-02-26T11:38:27;102820.47;;;4.38;54.23
71772;BME280;59606;52.138;5.424;2023-02-26T11:40:56;102823.94;;;4.49;53.15
71772;BME280;59606;52.138;5.424;2023-02-26T11:43:25;102823.97;;;4.57;54.22
71772;BME280;59606;52.138;5.424;2023-02-26T11:45:59;102823.94;;;4.49;53.93
71772;BME280;59606;52.138;5.424;2023-02-26T11:48:36;102823.97;;;4.51;53.24
71772;BME280;59606;52.138;5.424;2023-02-26T11:51:06;102822.22;;;4.45;54.40
71772;BME280;59606;52.138;5.424;2023-02-26T11:53:36;102819.69;;;4.57;54.79
71772;BME280;59606;52.138;5.424;2023-02-26T11:56:14;102817.97;;;4.71;54.71
71772;BME280;59606;52.138;5.424;2023-02-26T11:58:45;102817.13;;;4.77;53.63
71772;BME280;59606;52.138;5.424;2023-02-26T12:01:14;102814.53;;;4.92;54.44
71772;BME280;59606;52.138;5.424;2023-02-26T12:03:44;102812.81;;;5.02;53.22
71772;BME280;59606;52.138;5.424;2023-02-26T12:06:19;102814.53;;;5.09;53.15
71772;BME280;59606;52.138;5.424;2023-02-26T12:08:46;102811.97;;;5.22;54.38
71772;BME280;59606;52.138;5.424;2023-02-26T12:11:50;102805.06;;;5.36;54.22
71772;BME280;59606;52.138;5.424;2023-02-26T12:14:46;102802.47;;;5.37;53.03
71772;BME280;59606;52.138;5.424;2023-02-26T12:25:41;102801.56;;;5.52;53.55
71772;BME280;59606;52.138;5.424;2023-02-26T12:42:31;102800.69;;;5.53;53.97
71772;BME280;59606;52.138;5.424;2023-02-26T12:45:16;102793.81;;;5.64;53.57
71772;BME280;59606;52.138;5.424;2023-02-26T12:50:38;102792.91;;;5.78;52.88
71772;BME280;59606;52.138;5.424;2023-02-26T13:08:06;102799.75;;;5.91;53.06
71772;BME280;59606;52.138;5.424;2023-02-26T13:13:44;102806.63;;;6.04;51.52
71772;BME280;59606;52.138;5.424;2023-02-26T13:21:36;102802.25;;;6.16;50.59
71772;BME280;59606;52.138;5.424;2023-02-26T13:24:11;102804.06;;;5.97;50.45
71772;BME280;59606;52.138;5.424;2023-02-26T13:26:41;102798.94;;;5.74;51.34
71772;BME280;59606;52.138;5.424;2023-02-26T13:29:22;102793.75;;;5.77;51.09
71772;BME280;59606;52.138;5.424;2023-02-26T13:32:10;102787.72;;;5.84;51.59
71772;BME280;59606;52.138;5.424;2023-02-26T13:34:58;102799.75;;;6.00;52.29
71772;BME280;59606;52.138;5.424;2023-02-26T13:37:28;102794.56;;;6.02;50.46
71772;BME280;59606;52.138;5.424;2023-02-26T13:40:05;102793.69;;;6.04;50.70
71772;BME280;59606;52.138;5.424;2023-02-26T13:43:23;102792.81;;;6.08;50.35
71772;BME280;59606;52.138;5.424;2023-02-26T13:58:48;102787.56;;;6.22;49.76
71772;BME280;59606;52.138;5.424;2023-02-26T14:01:16;102786.66;;;6.26;49.98
71772;BME280;59606;52.138;5.424;2023-02-26T14:04:07;102787.47;;;6.36;50.36
71772;BME280;59606;52.138;5.424;2023-02-26T14:19:45;102793.69;;;6.04;52.44
71772;BME280;59606;52.138;5.424;2023-02-26T14:22:36;102795.38;;;6.14;52.12
71772;BME280;59606;52.138;5.424;2023-02-26T14:25:31;102795.41;;;6.08;51.38
71772;BME280;59606;52.138;5.424;2023-02-26T14:28:28;102797.09;;;6.09;51.46
71772;BME280;59606;52.138;5.424;2023-02-26T14:31:08;102802.25;;;6.16;51.75
71772;BME280;59606;52.138;5.424;2023-02-26T14:33:59;102797.03;;;6.28;51.19
71772;BME280;59606;52.138;5.424;2023-02-26T14:36:38;102798.78;;;6.24;49.91
71772;BME280;59606;52.138;5.424;2023-02-26T14:39:09;102794.41;;;6.29;50.31
71772;BME280;59606;52.138;5.424;2023-02-26T14:41:42;102802.16;;;6.32;50.83
71772;BME280;59606;52.138;5.424;2023-02-26T14:44:16;102801.31;;;6.35;50.26
71772;BME280;59606;52.138;5.424;2023-02-26T14:46:44;102797.84;;;6.34;50.02
71772;BME280;59606;52.138;5.424;2023-02-26T14:49:17;102793.50;;;6.40;50.24
71772;BME280;59606;52.138;5.424;2023-02-26T14:51:59;102784.91;;;6.37;50.24
71772;BME280;59606;52.138;5.424;2023-02-26T14:55:02;102797.81;;;6.42;50.91
71772;BME280;59606;52.138;5.424;2023-02-26T15:06:36;102802.13;;;6.37;52.01
71772;BME280;59606;52.138;5.424;2023-02-26T15:09:14;102796.19;;;6.20;51.40
71772;BME280;59606;52.138;5.424;2023-02-26T15:25:03;102802.22;;;6.20;51.34
71772;BME280;59606;52.138;5.424;2023-02-26T15:27:31;102798.78;;;6.17;51.27
71772;BME280;59606;52.138;5.424;2023-02-26T15:29:59;102797.09;;;6.16;51.08
71772;BME280;59606;52.138;5.424;2023-02-26T15:32:29;102807.44;;;6.12;51.36
71772;BME280;59606;52.138;5.424;2023-02-26T15:35:05;102807.47;;;6.11;52.41
71772;BME280;59606;52.138;5.424;2023-02-26T15:37:34;102812.63;;;6.17;52.09
71772;BME280;59606;52.138;5.424;2023-02-26T15:40:05;102808.31;;;6.13;51.70
71772;BME280;59606;52.138;5.424;2023-02-26T15:42:37;102810.91;;;6.08;51.98
71772;BME280;59606;52.138;5.424;2023-02-26T15:45:13;102810.94;;;6.04;52.45
71772;BME280;59606;52.138;5.424;2023-02-26T15:47:40;102811.81;;;6.04;52.68
71772;BME280;59606;52.138;5.424;2023-02-26T15:50:12;102819.56;;;5.97;51.70
71772;BME280;59606;52.138;5.424;2023-02-26T15:52:39;102817.88;;;5.96;52.10
71772;BME280;59606;52.138;5.424;2023-02-26T15:55:06;102806.66;;;5.89;51.98
71772;BME280;59606;52.138;5.424;2023-02-26T15:57:33;102813.56;;;5.84;51.52
71772;BME280;59606;52.138;5.424;2023-02-26T16:00:11;102823.91;;;5.79;51.99
71772;BME280;59606;52.138;5.424;2023-02-26T16:02:39;102817.91;;;5.66;52.03